Time;durP1;ratioP1;P1;durP2;ratioP2;P2;SDS_P1;SDS_P2;PMS_P1;PMS_P2;Temp;Humidity;BMP_temperature;BMP_pressure;BME280_temperature;BME280_humidity;BME280_pressure;Samples;Min_cycle;Max_cycle;Signal;HPM_P1;HPM_P2
2024/03/08 00:00:15;;;;;;;58.83;31.67;;;;;;;;;;5020186;28;25061;-65
2024/03/08 00:02:42;;;;;;;57.80;31.17;;;;;;;;;;5016874;28;25134;-67
2024/03/08 00:05:09;;;;;;;54.55;32.55;;;;;;;;;;5018798;28;25142;-67
2024/03/08 00:07:35;;;;;;;51.95;31.25;;;;;;;;;;5019256;28;25060;-65
2024/03/08 00:10:02;;;;;;;59.15;32.70;;;;;;;;;;5023133;28;25073;-66
2024/03/08 00:12:28;;;;;;;55.58;32.67;;;;;;;;;;5013099;28;25140;-65
2024/03/08 00:14:54;;;;;;;58.38;32.88;;;;;;;;;;5019491;28;25057;-66
2024/03/08 00:17:22;;;;;;;56.67;30.75;;;;;;;;;;5020880;28;25095;-67
2024/03/08 00:19:49;;;;;;;52.47;33.08;;;;;;;;;;5021628;28;25101;-66
2024/03/08 00:22:16;;;;;;;58.13;30.17;;;;;;;;;;5012510;28;25149;-65
2024/03/08 00:24:41;;;;;;;55.72;32.55;;;;;;;;;;5022647;28;25136;-65
2024/03/08 00:27:08;;;;;;;54.92;31.88;;;;;;;;;;5016262;28;25155;-64
2024/03/08 00:29:34;;;;;;;53.60;32.17;;;;;;;;;;5029037;28;25085;-67
2024/03/08 00:32:01;;;;;;;58.00;33.30;;;;;;;;;;5017774;28;25060;-66
2024/03/08 00:34:27;;;;;;;56.78;32.22;;;;;;;;;;5013616;28;25064;-65
2024/03/08 00:36:53;;;;;;;57.67;32.22;;;;;;;;;;5012916;28;25078;-65
2024/03/08 00:39:22;;;;;;;55.88;31.67;;;;;;;;;;5018759;28;25074;-66
2024/03/08 00:41:48;;;;;;;51.90;30.73;;;;;;;;;;5008318;28;25148;-66
2024/03/08 00:44:14;;;;;;;61.45;33.25;;;;;;;;;;5018623;28;25138;-64
2024/03/08 00:46:40;;;;;;;52.33;30.20;;;;;;;;;;5019809;28;25047;-65
2024/03/08 00:49:06;;;;;;;58.00;33.28;;;;;;;;;;5024506;28;25103;-65
2024/03/08 00:51:32;;;;;;;56.97;32.42;;;;;;;;;;5021830;28;25072;-64
2024/03/08 00:53:58;;;;;;;53.70;31.23;;;;;;;;;;5011343;28;25057;-65
2024/03/08 00:56:24;;;;;;;54.60;34.08;;;;;;;;;;5012962;28;25100;-65
2024/03/08 00:58:51;;;;;;;58.58;33.42;;;;;;;;;;5008257;28;25073;-66
2024/03/08 01:01:19;;;;;;;59.88;32.75;;;;;;;;;;5013657;28;25085;-65
2024/03/08 01:03:45;;;;;;;56.17;31.48;;;;;;;;;;5015259;28;25058;-66
2024/03/08 01:06:11;;;;;;;52.22;31.58;;;;;;;;;;5020182;28;25067;-64
2024/03/08 01:08:42;;;;;;;56.80;33.33;;;;;;;;;;5017214;28;25064;-64
2024/03/08 01:11:08;;;;;;;54.13;32.53;;;;;;;;;;5022828;28;25058;-66
2024/03/08 01:13:34;;;;;;;52.90;31.30;;;;;;;;;;5019053;28;25063;-63
2024/03/08 01:16:00;;;;;;;52.53;32.72;;;;;;;;;;5019729;28;25095;-66
2024/03/08 01:18:26;;;;;;;57.08;32.47;;;;;;;;;;5023767;28;25071;-64
2024/03/08 01:20:52;;;;;;;56.28;31.58;;;;;;;;;;5016136;28;25059;-66
2024/03/08 01:23:18;;;;;;;53.50;31.98;;;;;;;;;;5023572;28;25058;-66
2024/03/08 01:25:44;;;;;;;56.22;29.70;;;;;;;;;;5017640;28;25111;-66
2024/03/08 01:28:10;;;;;;;50.22;31.05;;;;;;;;;;5021650;28;25046;-66
2024/03/08 01:30:37;;;;;;;53.42;31.33;;;;;;;;;;5015357;28;25049;-65
2024/03/08 01:33:03;;;;;;;50.42;29.55;;;;;;;;;;5023223;28;25067;-64
2024/03/08 01:35:29;;;;;;;50.63;31.58;;;;;;;;;;5022717;28;25062;-65
2024/03/08 01:37:56;;;;;;;49.17;30.35;;;;;;;;;;5010364;28;25100;-65
2024/03/08 01:40:22;;;;;;;54.90;32.45;;;;;;;;;;5017053;28;25139;-65
2024/03/08 01:42:48;;;;;;;52.65;31.40;;;;;;;;;;5014703;28;25057;-64
2024/03/08 01:45:14;;;;;;;53.78;31.02;;;;;;;;;;5013787;28;25073;-65
2024/03/08 01:47:40;;;;;;;46.50;29.27;;;;;;;;;;5010537;28;25098;-65
2024/03/08 01:50:06;;;;;;;55.17;30.63;;;;;;;;;;5019771;28;25057;-63
2024/03/08 01:52:33;;;;;;;60.70;33.78;;;;;;;;;;5014470;28;25072;-65
2024/03/08 01:55:00;;;;;;;48.63;30.88;;;;;;;;;;5015259;28;25103;-66
2024/03/08 01:57:27;;;;;;;49.70;31.00;;;;;;;;;;5007032;28;25066;-65
2024/03/08 01:59:55;;;;;;;49.53;30.08;;;;;;;;;;5017594;28;25105;-63
2024/03/08 02:02:22;;;;;;;49.83;30.95;;;;;;;;;;5013161;28;25070;-67
2024/03/08 02:04:48;;;;;;;53.33;32.70;;;;;;;;;;5019928;28;25084;-64
2024/03/08 02:07:14;;;;;;;48.65;29.95;;;;;;;;;;5016547;28;25054;-65
2024/03/08 02:09:40;;;;;;;52.75;32.95;;;;;;;;;;5010423;28;25064;-64
2024/03/08 02:12:08;;;;;;;46.92;30.58;;;;;;;;;;5015367;28;25060;-66
2024/03/08 02:14:34;;;;;;;50.05;30.33;;;;;;;;;;5021844;28;25066;-65
2024/03/08 02:17:04;;;;;;;54.28;29.88;;;;;;;;;;5015637;28;25063;-64
2024/03/08 02:19:30;;;;;;;47.40;29.50;;;;;;;;;;5027725;28;25060;-64
2024/03/08 02:21:56;;;;;;;46.08;29.77;;;;;;;;;;5016705;28;25053;-65
2024/03/08 02:24:23;;;;;;;50.50;29.60;;;;;;;;;;5013742;28;25072;-64
2024/03/08 02:26:49;;;;;;;48.95;30.75;;;;;;;;;;5019277;28;25060;-67
2024/03/08 02:29:15;;;;;;;50.38;30.77;;;;;;;;;;5024614;28;25088;-65
2024/03/08 02:31:42;;;;;;;50.05;29.88;;;;;;;;;;5017563;28;25184;-67
2024/03/08 02:34:09;;;;;;;50.33;31.88;;;;;;;;;;5016914;28;25133;-66
2024/03/08 02:36:35;;;;;;;54.92;32.25;;;;;;;;;;5019129;28;25062;-65
2024/03/08 02:39:05;;;;;;;51.75;30.08;;;;;;;;;;5019741;28;25064;-63
2024/03/08 02:41:32;;;;;;;49.83;31.73;;;;;;;;;;5018308;28;25077;-65
2024/03/08 02:43:58;;;;;;;48.35;30.45;;;;;;;;;;5025727;28;25082;-67
2024/03/08 02:46:24;;;;;;;48.60;32.33;;;;;;;;;;5022186;28;25103;-65
2024/03/08 02:48:50;;;;;;;52.10;32.47;;;;;;;;;;5024155;28;25131;-67
2024/03/08 02:51:16;;;;;;;47.40;30.05;;;;;;;;;;5023934;28;25076;-65
2024/03/08 02:53:43;;;;;;;47.75;31.30;;;;;;;;;;5022474;28;25148;-65
2024/03/08 02:56:12;;;;;;;48.38;31.25;;;;;;;;;;5021201;28;25160;-66
2024/03/08 02:58:38;;;;;;;48.83;31.17;;;;;;;;;;5023192;28;25079;-65
2024/03/08 03:01:04;;;;;;;60.85;32.17;;;;;;;;;;5018510;28;25162;-64
2024/03/08 03:03:30;;;;;;;49.10;31.80;;;;;;;;;;5024832;28;25190;-64
2024/03/08 03:05:56;;;;;;;50.83;32.33;;;;;;;;;;5024165;28;25054;-65
2024/03/08 03:08:23;;;;;;;47.80;31.33;;;;;;;;;;5024958;28;25053;-63
2024/03/08 03:10:49;;;;;;;52.55;32.95;;;;;;;;;;5023809;28;25049;-65
2024/03/08 03:13:15;;;;;;;53.63;33.63;;;;;;;;;;5023810;28;25095;-65
2024/03/08 03:15:41;;;;;;;54.45;33.17;;;;;;;;;;5019713;28;25091;-65
2024/03/08 03:18:08;;;;;;;47.53;31.65;;;;;;;;;;5023730;28;25104;-66
2024/03/08 03:20:39;;;;;;;53.20;33.60;;;;;;;;;;5026580;28;25151;-65
2024/03/08 03:23:07;;;;;;;51.17;32.28;;;;;;;;;;5018689;28;25094;-64
2024/03/08 03:25:35;;;;;;;53.55;31.77;;;;;;;;;;5020216;28;25065;-64
2024/03/08 03:28:01;;;;;;;52.55;32.15;;;;;;;;;;5016762;28;25060;-64
2024/03/08 03:30:32;;;;;;;53.50;37.30;;;;;;;;;;5022463;28;25079;-66
2024/03/08 03:33:00;;;;;;;55.97;33.85;;;;;;;;;;5024673;28;25134;-66
2024/03/08 03:35:26;;;;;;;54.13;32.50;;;;;;;;;;5020616;28;25057;-63
2024/03/08 03:38:05;;;;;;;51.28;32.70;;;;;;;;;;5025341;28;25078;-67
2024/03/08 03:40:32;;;;;;;52.05;33.10;;;;;;;;;;5023069;28;25084;-64
2024/03/08 03:42:58;;;;;;;51.80;33.15;;;;;;;;;;5018817;28;25177;-64
2024/03/08 03:45:24;;;;;;;50.85;31.63;;;;;;;;;;5020640;28;25107;-63
2024/03/08 03:47:51;;;;;;;47.15;31.00;;;;;;;;;;5026729;28;25074;-66
2024/03/08 03:50:19;;;;;;;51.20;33.50;;;;;;;;;;5026468;28;25158;-65
2024/03/08 03:52:44;;;;;;;54.30;33.33;;;;;;;;;;5024900;28;25131;-64
2024/03/08 03:55:11;;;;;;;55.03;35.10;;;;;;;;;;5023925;28;25083;-64
2024/03/08 03:57:38;;;;;;;48.78;32.65;;;;;;;;;;5018615;28;25071;-64
2024/03/08 04:00:04;;;;;;;52.47;33.42;;;;;;;;;;5025118;28;25108;-64
2024/03/08 04:02:30;;;;;;;50.03;33.50;;;;;;;;;;5021906;28;25056;-64
2024/03/08 04:04:56;;;;;;;48.28;32.00;;;;;;;;;;5023035;28;25069;-64
2024/03/08 04:07:22;;;;;;;52.35;33.15;;;;;;;;;;5023749;28;25073;-65
2024/03/08 04:09:49;;;;;;;49.03;32.45;;;;;;;;;;5027837;28;25070;-66
2024/03/08 04:12:15;;;;;;;50.92;32.30;;;;;;;;;;5022578;28;25053;-66
2024/03/08 04:14:42;;;;;;;50.33;33.55;;;;;;;;;;5027947;28;25108;-64
2024/03/08 04:17:14;;;;;;;53.60;32.38;;;;;;;;;;5027731;28;25107;-65
2024/03/08 04:19:40;;;;;;;47.33;33.28;;;;;;;;;;5025983;28;25066;-64
2024/03/08 04:22:07;;;;;;;51.28;33.53;;;;;;;;;;5023598;28;25053;-66
2024/03/08 04:24:33;;;;;;;47.95;32.45;;;;;;;;;;5019549;28;25066;-64
2024/03/08 04:26:59;;;;;;;62.90;34.63;;;;;;;;;;5022350;28;25073;-66
2024/03/08 04:29:26;;;;;;;53.97;32.72;;;;;;;;;;5025419;28;25317;-65
2024/03/08 04:31:55;;;;;;;52.83;33.30;;;;;;;;;;5022016;28;25059;-65
2024/03/08 04:34:22;;;;;;;52.55;35.45;;;;;;;;;;5022508;28;25078;-64
2024/03/08 04:36:48;;;;;;;56.55;37.40;;;;;;;;;;5020896;28;25061;-64
2024/03/08 04:39:15;;;;;;;47.92;32.70;;;;;;;;;;5022198;28;25062;-64
2024/03/08 04:41:43;;;;;;;51.70;34.72;;;;;;;;;;5020038;28;25087;-65
2024/03/08 04:44:09;;;;;;;49.25;33.97;;;;;;;;;;5015553;28;25062;-67
2024/03/08 04:46:35;;;;;;;49.75;34.38;;;;;;;;;;5020823;28;25078;-65
2024/03/08 04:49:01;;;;;;;52.78;36.85;;;;;;;;;;5018468;28;25064;-66
2024/03/08 04:51:27;;;;;;;51.80;34.15;;;;;;;;;;5021388;28;25083;-65
2024/03/08 04:53:53;;;;;;;53.05;34.40;;;;;;;;;;5016944;28;25146;-64
2024/03/08 04:56:19;;;;;;;53.70;34.97;;;;;;;;;;5022333;28;25081;-64
2024/03/08 04:58:49;;;;;;;55.25;35.28;;;;;;;;;;5018322;28;25096;-62
2024/03/08 05:01:15;;;;;;;49.20;33.67;;;;;;;;;;5022572;28;25072;-65
2024/03/08 05:03:41;;;;;;;57.17;34.67;;;;;;;;;;5021980;28;25084;-64
2024/03/08 05:06:07;;;;;;;56.33;33.58;;;;;;;;;;5025481;28;25096;-64
2024/03/08 05:08:34;;;;;;;57.13;34.58;;;;;;;;;;5018959;28;25056;-68
2024/03/08 05:11:03;;;;;;;59.25;37.08;;;;;;;;;;5022957;28;25061;-66
2024/03/08 05:13:30;;;;;;;48.65;34.25;;;;;;;;;;5015429;28;25107;-64
2024/03/08 05:15:58;;;;;;;51.45;34.38;;;;;;;;;;5017558;28;25175;-65
2024/03/08 05:18:24;;;;;;;54.90;35.90;;;;;;;;;;5015497;28;25101;-65
2024/03/08 05:20:51;;;;;;;51.47;36.83;;;;;;;;;;5021273;28;25056;-67
2024/03/08 05:23:19;;;;;;;53.38;34.55;;;;;;;;;;5017013;28;25140;-65
2024/03/08 05:25:46;;;;;;;55.67;36.28;;;;;;;;;;5016181;28;25053;-65
2024/03/08 05:28:12;;;;;;;54.60;35.35;;;;;;;;;;5018624;28;25138;-65
2024/03/08 05:30:39;;;;;;;50.13;34.47;;;;;;;;;;5023880;28;25065;-65
2024/03/08 05:33:05;;;;;;;56.22;34.80;;;;;;;;;;5014950;28;25054;-66
2024/03/08 05:35:32;;;;;;;53.40;38.05;;;;;;;;;;5017448;28;25063;-65
2024/03/08 05:37:58;;;;;;;58.35;35.58;;;;;;;;;;5014688;28;25055;-64
2024/03/08 05:40:24;;;;;;;51.75;34.65;;;;;;;;;;5016168;28;25080;-66
2024/03/08 05:42:50;;;;;;;49.38;34.35;;;;;;;;;;5021118;28;25070;-64
2024/03/08 05:45:16;;;;;;;50.28;35.95;;;;;;;;;;5013927;28;25071;-65
2024/03/08 05:47:42;;;;;;;51.53;35.30;;;;;;;;;;5017063;28;25067;-64
2024/03/08 05:50:10;;;;;;;51.50;33.92;;;;;;;;;;5024520;28;25072;-66
2024/03/08 05:52:38;;;;;;;61.15;36.22;;;;;;;;;;5016998;28;25125;-64
2024/03/08 05:55:07;;;;;;;55.47;36.60;;;;;;;;;;5018476;28;25110;-66
2024/03/08 05:57:33;;;;;;;51.22;35.28;;;;;;;;;;5017868;28;25103;-67
2024/03/08 05:59:59;;;;;;;52.13;35.97;;;;;;;;;;5023700;28;25044;-64
2024/03/08 06:02:25;;;;;;;55.15;37.15;;;;;;;;;;5019710;28;25063;-65
2024/03/08 06:04:51;;;;;;;54.05;36.13;;;;;;;;;;5015842;28;25077;-66
2024/03/08 06:07:17;;;;;;;48.85;34.40;;;;;;;;;;5011510;28;25122;-69
2024/03/08 06:09:46;;;;;;;56.40;37.63;;;;;;;;;;5018632;28;25045;-65
2024/03/08 06:12:12;;;;;;;50.50;34.67;;;;;;;;;;5023862;28;25059;-64
2024/03/08 06:14:38;;;;;;;50.15;35.45;;;;;;;;;;5019621;28;25099;-64
2024/03/08 06:17:07;;;;;;;55.33;37.38;;;;;;;;;;5014042;28;25076;-65
2024/03/08 06:19:33;;;;;;;53.70;35.33;;;;;;;;;;5022378;28;25050;-64
2024/03/08 06:22:02;;;;;;;48.67;34.03;;;;;;;;;;5022290;28;25059;-64
2024/03/08 06:24:28;;;;;;;55.33;36.35;;;;;;;;;;5019075;28;25076;-65
2024/03/08 06:26:54;;;;;;;52.25;35.63;;;;;;;;;;5016902;28;25068;-64
2024/03/08 06:29:20;;;;;;;53.25;36.45;;;;;;;;;;5025026;28;25064;-65
2024/03/08 06:31:46;;;;;;;48.22;35.28;;;;;;;;;;5020949;28;25058;-64
2024/03/08 06:34:12;;;;;;;55.20;36.80;;;;;;;;;;5016065;28;25126;-67
2024/03/08 06:36:38;;;;;;;50.70;35.20;;;;;;;;;;5016307;28;25100;-64
2024/03/08 06:39:08;;;;;;;52.58;36.72;;;;;;;;;;5019733;28;25077;-64
2024/03/08 06:41:35;;;;;;;54.70;37.38;;;;;;;;;;5013367;28;25043;-65
2024/03/08 06:44:01;;;;;;;54.38;35.97;;;;;;;;;;5013310;28;25055;-65
2024/03/08 06:46:27;;;;;;;55.00;34.45;;;;;;;;;;5009851;28;25054;-65
2024/03/08 06:48:53;;;;;;;53.72;34.45;;;;;;;;;;5021481;28;25053;-65
2024/03/08 06:51:19;;;;;;;54.83;37.75;;;;;;;;;;5015570;28;25197;-64
2024/03/08 06:53:45;;;;;;;52.08;36.05;;;;;;;;;;5012128;28;25138;-63
2024/03/08 06:56:11;;;;;;;58.10;37.40;;;;;;;;;;5022337;28;25127;-64
2024/03/08 06:58:37;;;;;;;55.53;37.40;;;;;;;;;;5019204;28;25081;-64
2024/03/08 07:01:07;;;;;;;53.05;34.47;;;;;;;;;;5015669;28;25090;-65
2024/03/08 07:03:33;;;;;;;54.75;34.95;;;;;;;;;;5021196;28;25158;-64
2024/03/08 07:05:59;;;;;;;54.17;34.85;;;;;;;;;;5021986;28;25116;-63
2024/03/08 07:08:26;;;;;;;55.05;35.80;;;;;;;;;;5017174;28;25064;-63
2024/03/08 07:10:53;;;;;;;53.95;35.97;;;;;;;;;;5027793;28;25125;-66
2024/03/08 07:13:19;;;;;;;56.53;35.67;;;;;;;;;;5023212;28;25081;-64
2024/03/08 07:15:45;;;;;;;52.60;34.92;;;;;;;;;;5021036;28;25137;-64
2024/03/08 07:18:14;;;;;;;50.70;36.38;;;;;;;;;;5024997;28;25136;-64
2024/03/08 07:20:40;;;;;;;52.00;32.75;;;;;;;;;;5027008;28;25069;-65
2024/03/08 07:23:06;;;;;;;52.15;33.63;;;;;;;;;;5022460;28;25066;-64
2024/03/08 07:25:32;;;;;;;49.85;34.20;;;;;;;;;;5027197;28;25078;-64
2024/03/08 07:28:00;;;;;;;51.92;32.95;;;;;;;;;;5021932;28;25050;-65
2024/03/08 07:33:14;;;;;;;52.47;33.92;;;;;;;;;;5023511;28;25045;-65
2024/03/08 07:35:40;;;;;;;54.30;34.38;;;;;;;;;;5016783;28;25073;-65
2024/03/08 07:38:08;;;;;;;57.83;35.08;;;;;;;;;;5024848;28;25108;-64
2024/03/08 07:40:40;;;;;;;54.50;35.65;;;;;;;;;;5026952;28;25066;-65
2024/03/08 07:43:06;;;;;;;51.75;33.67;;;;;;;;;;5024884;28;25065;-66
2024/03/08 07:45:32;;;;;;;49.63;35.17;;;;;;;;;;5024035;28;25122;-64
2024/03/08 07:47:58;;;;;;;49.95;34.08;;;;;;;;;;5025604;28;25113;-67
2024/03/08 07:50:24;;;;;;;52.28;34.50;;;;;;;;;;5022710;28;25088;-65
2024/03/08 07:52:50;;;;;;;49.85;33.42;;;;;;;;;;5025612;28;25167;-66
2024/03/08 07:55:17;;;;;;;51.45;34.28;;;;;;;;;;5026687;28;25079;-64
2024/03/08 07:57:42;;;;;;;51.13;33.50;;;;;;;;;;5016960;28;25055;-64
2024/03/08 08:00:09;;;;;;;53.72;34.72;;;;;;;;;;5025963;28;25072;-66
2024/03/08 08:02:35;;;;;;;45.17;31.10;;;;;;;;;;5023443;28;25048;-64
2024/03/08 08:05:01;;;;;;;51.50;34.75;;;;;;;;;;5025806;28;25082;-66
2024/03/08 08:07:28;;;;;;;52.33;33.50;;;;;;;;;;5023881;28;25077;-65
2024/03/08 08:09:54;;;;;;;50.15;33.95;;;;;;;;;;5026090;28;25059;-66
2024/03/08 08:12:20;;;;;;;50.30;33.53;;;;;;;;;;5025649;28;25063;-64
2024/03/08 08:14:46;;;;;;;48.15;32.70;;;;;;;;;;5029013;28;25129;-65
2024/03/08 08:17:12;;;;;;;48.17;32.38;;;;;;;;;;5027789;28;25057;-65
2024/03/08 08:19:41;;;;;;;45.38;31.60;;;;;;;;;;5028366;28;25067;-64
2024/03/08 08:22:08;;;;;;;44.85;30.30;;;;;;;;;;5026332;28;25053;-65
2024/03/08 08:24:36;;;;;;;46.05;31.58;;;;;;;;;;5021288;28;25102;-64
2024/03/08 08:27:02;;;;;;;53.38;34.25;;;;;;;;;;5019865;28;25052;-68
2024/03/08 08:29:28;;;;;;;46.53;32.88;;;;;;;;;;5019091;28;25154;-65
2024/03/08 08:31:54;;;;;;;52.15;33.42;;;;;;;;;;5025732;28;25062;-64
2024/03/08 08:34:23;;;;;;;44.65;32.35;;;;;;;;;;5024588;28;25154;-65
2024/03/08 08:36:49;;;;;;;42.55;29.92;;;;;;;;;;5026211;28;25064;-65
2024/03/08 08:39:17;;;;;;;44.53;31.38;;;;;;;;;;5025322;28;25081;-64
2024/03/08 08:41:42;;;;;;;47.70;32.38;;;;;;;;;;5024597;28;25136;-65
2024/03/08 08:44:10;;;;;;;46.30;31.13;;;;;;;;;;5024463;28;25066;-65
2024/03/08 08:46:37;;;;;;;50.70;31.50;;;;;;;;;;5025648;28;25080;-65
2024/03/08 08:49:04;;;;;;;50.15;32.28;;;;;;;;;;5022004;28;25057;-65
2024/03/08 08:51:31;;;;;;;46.00;30.48;;;;;;;;;;5019337;28;25089;-64
2024/03/08 08:53:57;;;;;;;48.20;32.95;;;;;;;;;;5023305;28;25113;-64
2024/03/08 08:56:22;;;;;;;46.00;31.60;;;;;;;;;;5028396;28;25061;-64
2024/03/08 08:58:49;;;;;;;42.22;29.13;;;;;;;;;;5021391;28;25068;-65
2024/03/08 09:01:18;;;;;;;39.63;28.30;;;;;;;;;;5027863;28;25190;-65
2024/03/08 09:03:46;;;;;;;36.53;27.10;;;;;;;;;;5023598;28;25084;-65
2024/03/08 09:06:13;;;;;;;36.40;26.38;;;;;;;;;;5023807;28;25059;-65
2024/03/08 09:08:41;;;;;;;44.58;27.27;;;;;;;;;;5024280;28;25069;-64
2024/03/08 09:11:07;;;;;;;40.90;28.92;;;;;;;;;;5019057;28;25119;-66
2024/03/08 09:13:34;;;;;;;44.95;28.88;;;;;;;;;;5012840;28;25146;-65
2024/03/08 09:16:00;;;;;;;43.70;28.42;;;;;;;;;;5025243;28;25071;-64
2024/03/08 09:18:26;;;;;;;43.25;28.58;;;;;;;;;;5020841;28;25150;-62
2024/03/08 09:20:53;;;;;;;40.83;28.02;;;;;;;;;;5017993;28;25152;-68
2024/03/08 09:23:22;;;;;;;38.25;27.08;;;;;;;;;;5015597;28;25072;-64
2024/03/08 09:25:48;;;;;;;38.30;26.95;;;;;;;;;;5013985;28;25109;-64
2024/03/08 09:28:15;;;;;;;39.20;26.38;;;;;;;;;;5020515;28;25094;-65
2024/03/08 09:30:42;;;;;;;40.67;28.77;;;;;;;;;;5018525;28;25149;-65
2024/03/08 09:33:09;;;;;;;40.45;27.60;;;;;;;;;;5022866;28;25145;-65
2024/03/08 09:35:35;;;;;;;41.25;27.08;;;;;;;;;;5025746;28;25092;-64
2024/03/08 09:38:03;;;;;;;37.28;28.08;;;;;;;;;;5022970;28;25056;-65
2024/03/08 09:40:29;;;;;;;38.10;26.38;;;;;;;;;;5026426;28;25053;-67
2024/03/08 09:42:57;;;;;;;40.05;26.52;;;;;;;;;;5023334;28;25096;-66
2024/03/08 09:45:24;;;;;;;39.17;27.67;;;;;;;;;;5023970;28;25072;-65
2024/03/08 09:47:51;;;;;;;46.90;27.65;;;;;;;;;;5013105;28;25061;-66
2024/03/08 09:50:18;;;;;;;40.30;28.05;;;;;;;;;;5023149;28;25124;-64
2024/03/08 09:52:47;;;;;;;37.70;26.63;;;;;;;;;;5022089;28;25151;-65
2024/03/08 09:55:13;;;;;;;40.75;28.27;;;;;;;;;;5023969;28;25052;-65
2024/03/08 09:57:40;;;;;;;39.42;27.17;;;;;;;;;;5018402;28;25080;-65
2024/03/08 10:00:23;;;;;;;43.92;28.35;;;;;;;;;;5020943;28;25096;-64
2024/03/08 10:02:53;;;;;;;37.50;28.20;;;;;;;;;;5020749;28;25054;-63
2024/03/08 10:05:21;;;;;;;41.80;26.98;;;;;;;;;;5025443;28;25051;-64
2024/03/08 10:07:47;;;;;;;38.92;28.23;;;;;;;;;;5013441;28;25081;-63
2024/03/08 10:10:14;;;;;;;36.83;25.67;;;;;;;;;;5017046;28;25092;-64
2024/03/08 10:12:40;;;;;;;37.90;26.52;;;;;;;;;;5022706;28;25056;-66
2024/03/08 10:15:09;;;;;;;38.53;26.80;;;;;;;;;;5016964;28;25144;-63
2024/03/08 10:17:39;;;;;;;37.83;27.48;;;;;;;;;;5022253;28;25055;-63
2024/03/08 10:20:14;;;;;;;39.65;27.60;;;;;;;;;;5020720;28;24968;-65
2024/03/08 10:22:42;;;;;;;38.17;26.60;;;;;;;;;;5021270;28;25125;-64
2024/03/08 10:25:10;;;;;;;35.22;26.98;;;;;;;;;;5019268;28;25066;-66
2024/03/08 10:27:37;;;;;;;35.53;25.42;;;;;;;;;;5022741;28;25052;-66
2024/03/08 10:30:03;;;;;;;36.85;24.92;;;;;;;;;;5023160;28;25098;-65
2024/03/08 10:32:29;;;;;;;33.55;24.30;;;;;;;;;;5015973;28;25132;-64
2024/03/08 10:34:55;;;;;;;36.20;26.08;;;;;;;;;;5037157;28;25122;-65
2024/03/08 10:37:28;;;;;;;38.78;27.95;;;;;;;;;;5039106;28;25058;-64
2024/03/08 10:40:16;;;;;;;40.60;27.08;;;;;;;;;;5037934;28;25068;-66
2024/03/08 10:43:04;;;;;;;40.60;25.58;;;;;;;;;;5031383;28;25064;-65
2024/03/08 10:45:42;;;;;;;33.88;23.67;;;;;;;;;;5021678;28;25141;-64
2024/03/08 10:48:22;;;;;;;34.83;25.65;;;;;;;;;;5027955;28;25086;-64
2024/03/08 10:50:50;;;;;;;37.17;28.30;;;;;;;;;;5027371;28;25076;-66
2024/03/08 10:53:16;;;;;;;36.40;25.02;;;;;;;;;;5025941;28;25079;-65
2024/03/08 10:55:43;;;;;;;37.10;24.52;;;;;;;;;;5027297;28;25101;-65
2024/03/08 10:58:09;;;;;;;37.55;23.92;;;;;;;;;;5026457;28;25059;-66
2024/03/08 11:00:36;;;;;;;37.85;25.95;;;;;;;;;;5026525;28;25043;-64
2024/03/08 11:03:03;;;;;;;42.10;25.92;;;;;;;;;;5024490;28;25105;-65
2024/03/08 11:05:37;;;;;;;38.03;25.80;;;;;;;;;;5025774;28;25088;-65
2024/03/08 11:08:04;;;;;;;32.15;23.95;;;;;;;;;;5027166;28;25065;-66
2024/03/08 11:10:30;;;;;;;36.50;24.38;;;;;;;;;;5032315;28;24937;-64
2024/03/08 11:12:58;;;;;;;36.78;23.17;;;;;;;;;;5025696;28;25162;-65
2024/03/08 11:15:25;;;;;;;32.22;22.67;;;;;;;;;;5031038;28;25074;-65
2024/03/08 11:17:51;;;;;;;32.88;22.45;;;;;;;;;;5026894;28;25083;-64
2024/03/08 11:20:20;;;;;;;33.50;23.48;;;;;;;;;;5027824;28;25071;-65
2024/03/08 11:22:51;;;;;;;40.90;24.40;;;;;;;;;;5027369;28;25063;-67
2024/03/08 11:25:39;;;;;;;33.70;22.75;;;;;;;;;;5029193;28;25044;-64
2024/03/08 11:28:19;;;;;;;33.88;22.10;;;;;;;;;;5020092;28;25054;-68
2024/03/08 11:30:47;;;;;;;32.53;22.55;;;;;;;;;;5025195;28;25041;-66
2024/03/08 11:33:14;;;;;;;30.00;21.48;;;;;;;;;;5025592;28;25114;-68
2024/03/08 11:35:41;;;;;;;31.35;20.58;;;;;;;;;;5026795;28;25076;-64
2024/03/08 11:38:08;;;;;;;30.70;21.10;;;;;;;;;;5024347;28;25068;-64
2024/03/08 11:40:34;;;;;;;28.85;20.20;;;;;;;;;;5024955;28;25054;-63
2024/03/08 11:43:03;;;;;;;26.58;20.10;;;;;;;;;;5024814;28;25049;-66
2024/03/08 11:45:29;;;;;;;29.20;21.15;;;;;;;;;;5025751;28;25071;-64
2024/03/08 11:47:56;;;;;;;27.08;19.30;;;;;;;;;;5024839;28;25061;-65
2024/03/08 11:50:23;;;;;;;27.60;20.88;;;;;;;;;;5027764;28;25080;-65
2024/03/08 11:52:49;;;;;;;23.08;18.17;;;;;;;;;;5026895;28;25082;-65
2024/03/08 11:55:16;;;;;;;30.40;19.55;;;;;;;;;;5026197;28;24778;-64
2024/03/08 11:57:42;;;;;;;31.08;20.10;;;;;;;;;;5026618;28;25059;-64
2024/03/08 12:00:21;;;;;;;28.23;18.55;;;;;;;;;;5027126;28;25061;-67
2024/03/08 12:02:50;;;;;;;28.25;18.10;;;;;;;;;;5025209;28;25076;-64
2024/03/08 12:05:16;;;;;;;24.50;19.00;;;;;;;;;;5022878;28;25065;-64
2024/03/08 12:07:43;;;;;;;26.90;19.50;;;;;;;;;;5023369;28;25116;-65
2024/03/08 12:10:18;;;;;;;27.98;20.40;;;;;;;;;;5024538;28;25129;-66
2024/03/08 12:12:46;;;;;;;26.65;20.08;;;;;;;;;;5006348;28;25055;-65
2024/03/08 12:15:12;;;;;;;26.55;18.48;;;;;;;;;;5006136;28;25151;-65
2024/03/08 12:17:39;;;;;;;29.38;20.15;;;;;;;;;;5004376;28;25080;-67
2024/03/08 12:20:31;;;;;;;27.55;19.90;;;;;;;;;;5004179;28;25057;-64
2024/03/08 12:22:58;;;;;;;24.75;19.60;;;;;;;;;;4994034;28;25060;-65
2024/03/08 12:25:31;;;;;;;27.77;18.63;;;;;;;;;;4997347;28;25083;-65
2024/03/08 12:27:58;;;;;;;26.95;19.45;;;;;;;;;;5002895;28;25043;-65
2024/03/08 12:30:28;;;;;;;27.58;18.77;;;;;;;;;;4995772;28;25116;-64
2024/03/08 12:32:59;;;;;;;27.48;19.33;;;;;;;;;;4992225;28;25054;-64
2024/03/08 12:35:26;;;;;;;25.48;18.20;;;;;;;;;;4995388;28;25082;-65
2024/03/08 12:38:00;;;;;;;24.73;18.30;;;;;;;;;;5003289;28;25056;-65
2024/03/08 12:40:27;;;;;;;24.92;18.50;;;;;;;;;;5001016;28;25126;-66
2024/03/08 12:42:53;;;;;;;25.45;19.13;;;;;;;;;;4994559;28;25086;-66
2024/03/08 12:45:21;;;;;;;27.52;19.85;;;;;;;;;;4997356;28;25156;-64
2024/03/08 12:47:47;;;;;;;27.35;18.45;;;;;;;;;;5003395;28;25064;-65
2024/03/08 12:50:16;;;;;;;27.10;19.15;;;;;;;;;;5013504;28;25059;-66
2024/03/08 12:52:42;;;;;;;26.63;19.25;;;;;;;;;;5025498;28;25052;-63
2024/03/08 12:55:08;;;;;;;25.85;18.85;;;;;;;;;;5026931;28;25081;-64
2024/03/08 12:57:35;;;;;;;26.42;18.67;;;;;;;;;;5018768;28;25101;-64
2024/03/08 13:00:02;;;;;;;25.25;17.38;;;;;;;;;;5005372;28;25051;-66
2024/03/08 13:02:30;;;;;;;21.73;16.48;;;;;;;;;;5000016;28;25042;-66
2024/03/08 13:04:57;;;;;;;26.42;18.05;;;;;;;;;;4998104;28;25047;-66
2024/03/08 13:07:25;;;;;;;27.73;20.63;;;;;;;;;;4994195;28;25133;-65
2024/03/08 13:09:52;;;;;;;25.25;18.50;;;;;;;;;;4998430;28;25075;-65
2024/03/08 13:12:20;;;;;;;25.85;19.90;;;;;;;;;;4999154;28;25048;-65
2024/03/08 13:14:46;;;;;;;30.02;19.75;;;;;;;;;;5001150;28;25134;-67
2024/03/08 13:17:12;;;;;;;27.98;19.15;;;;;;;;;;4997506;28;25157;-65
2024/03/08 13:19:38;;;;;;;29.17;19.67;;;;;;;;;;5001366;28;25136;-66
2024/03/08 13:22:05;;;;;;;26.42;19.70;;;;;;;;;;4992323;28;25079;-64
2024/03/08 13:24:31;;;;;;;30.13;19.42;;;;;;;;;;4996560;28;25068;-66
2024/03/08 13:26:58;;;;;;;26.10;20.02;;;;;;;;;;5005054;28;25301;-67
2024/03/08 13:29:24;;;;;;;28.98;20.30;;;;;;;;;;4996811;28;25072;-67
2024/03/08 13:31:51;;;;;;;28.50;19.42;;;;;;;;;;5001858;28;25197;-67
2024/03/08 13:34:29;;;;;;;28.05;20.17;;;;;;;;;;5004647;28;25058;-65
2024/03/08 13:36:59;;;;;;;26.83;20.52;;;;;;;;;;5002422;28;25163;-67
2024/03/08 13:39:25;;;;;;;30.60;20.08;;;;;;;;;;4996674;28;25081;-67
2024/03/08 13:41:51;;;;;;;30.13;19.55;;;;;;;;;;4998091;28;25067;-65
2024/03/08 13:44:17;;;;;;;28.92;21.10;;;;;;;;;;4990736;28;25169;-64
2024/03/08 13:46:43;;;;;;;26.70;20.38;;;;;;;;;;4995316;28;25086;-66
2024/03/08 13:49:10;;;;;;;28.58;21.05;;;;;;;;;;4995090;28;25093;-65
2024/03/08 13:51:36;;;;;;;28.75;21.67;;;;;;;;;;4992279;28;25062;-68
2024/03/08 13:54:06;;;;;;;29.83;21.55;;;;;;;;;;4999723;28;25056;-70
2024/03/08 13:56:32;;;;;;;31.23;21.83;;;;;;;;;;4995505;28;25164;-66
2024/03/08 13:58:58;;;;;;;30.40;21.70;;;;;;;;;;4999557;28;25097;-67
2024/03/08 14:01:25;;;;;;;26.75;20.48;;;;;;;;;;5001300;28;25112;-68
2024/03/08 14:03:51;;;;;;;32.47;20.95;;;;;;;;;;4994119;28;25094;-68
2024/03/08 14:06:17;;;;;;;32.17;22.48;;;;;;;;;;5001579;28;25136;-64
2024/03/08 14:08:43;;;;;;;28.13;21.00;;;;;;;;;;4992860;28;25074;-64
2024/03/08 14:11:13;;;;;;;30.67;20.98;;;;;;;;;;5002916;28;25065;-67
2024/03/08 14:13:45;;;;;;;28.92;20.10;;;;;;;;;;5020075;28;25069;-66
2024/03/08 14:16:11;;;;;;;;;;;;;;;;;;4994948;28;25149;-67
2024/03/08 14:18:37;;;;;;;30.92;20.35;;;;;;;;;;4998552;28;25093;-65
2024/03/08 14:21:04;;;;;;;31.02;20.52;;;;;;;;;;4998361;28;25090;-67